Time;durP1;ratioP1;P1;durP2;ratioP2;P2;SDS_P1;SDS_P2;PMS_P1;PMS_P2;Temp;Humidity;BMP_temperature;BMP_pressure;BME280_temperature;BME280_humidity;BME280_pressure;Samples;Min_cycle;Max_cycle;Signal;HPM_P1;HPM_P2
2023/07/23 00:00:37;;;;;;;67.50;29.42;;;;;;;;;;5053921;28;20063;-66
2023/07/23 00:03:02;;;;;;;72.65;30.65;;;;;;;;;;5055689;28;20500;-66
2023/07/23 00:05:27;;;;;;;67.53;28.58;;;;;;;;;;5053602;28;20028;-67
2023/07/23 00:07:59;;;;;;;64.32;28.88;;;;;;;;;;5055944;28;20040;-66
2023/07/23 00:10:25;;;;;;;62.90;28.35;;;;;;;;;;5055453;28;20469;-67
2023/07/23 00:12:50;;;;;;;57.45;27.77;;;;;;;;;;5053265;28;20079;-67
2023/07/23 00:15:16;;;;;;;66.28;27.92;;;;;;;;;;5054955;28;20021;-66
2023/07/23 00:17:41;;;;;;;59.58;27.48;;;;;;;;;;5052816;28;20489;-67
2023/07/23 00:20:07;;;;;;;62.58;28.23;;;;;;;;;;5053609;28;20051;-66
2023/07/23 00:22:33;;;;;;;63.38;28.23;;;;;;;;;;5053629;28;20503;-67
2023/07/23 00:24:58;;;;;;;65.15;28.17;;;;;;;;;;5059366;28;20040;-67
2023/07/23 00:27:23;;;;;;;69.68;28.30;;;;;;;;;;5073477;28;20397;-67
2023/07/23 00:29:48;;;;;;;59.17;28.65;;;;;;;;;;5089334;28;20016;-67
2023/07/23 00:32:14;;;;;;;60.35;28.25;;;;;;;;;;5075677;28;20121;-67
2023/07/23 00:34:39;;;;;;;56.30;27.23;;;;;;;;;;5075195;28;20025;-67
2023/07/23 00:37:04;;;;;;;56.03;26.88;;;;;;;;;;5075474;28;20024;-67
2023/07/23 00:39:30;;;;;;;56.67;27.30;;;;;;;;;;5076082;28;20374;-67
2023/07/23 00:41:56;;;;;;;53.38;24.27;;;;;;;;;;5073208;28;20052;-67
2023/07/23 00:44:21;;;;;;;53.72;24.48;;;;;;;;;;5073407;28;20107;-67
2023/07/23 00:46:47;;;;;;;50.47;24.35;;;;;;;;;;5082339;28;20060;-67
2023/07/23 00:49:12;;;;;;;57.47;25.52;;;;;;;;;;5075104;28;20028;-67
2023/07/23 00:51:38;;;;;;;54.25;26.33;;;;;;;;;;5074225;28;20495;-67
2023/07/23 00:54:03;;;;;;;61.20;27.42;;;;;;;;;;5074519;28;20024;-67
2023/07/23 00:56:30;;;;;;;71.68;27.38;;;;;;;;;;5074823;28;20095;-67
2023/07/23 00:58:55;;;;;;;57.95;27.55;;;;;;;;;;5075937;28;20555;-67
2023/07/23 01:04:06;;;;;;;54.40;26.52;;;;;;;;;;5068774;28;20508;-66
2023/07/23 01:06:33;;;;;;;57.55;26.83;;;;;;;;;;5074059;28;20028;-66
2023/07/23 01:08:59;;;;;;;54.35;26.30;;;;;;;;;;5074578;28;20032;-66
2023/07/23 01:11:24;;;;;;;60.97;27.15;;;;;;;;;;5073117;28;20029;-66
2023/07/23 01:13:51;;;;;;;64.22;27.92;;;;;;;;;;5072962;28;20099;-66
2023/07/23 01:16:16;;;;;;;60.72;28.13;;;;;;;;;;5059031;28;20025;-65
2023/07/23 01:18:42;;;;;;;63.55;27.45;;;;;;;;;;5074546;28;20464;-66
2023/07/23 01:21:09;;;;;;;62.85;27.45;;;;;;;;;;5055763;28;20485;-66
2023/07/23 01:23:35;;;;;;;69.07;27.80;;;;;;;;;;5065657;28;20020;-66
2023/07/23 01:26:00;;;;;;;54.67;27.52;;;;;;;;;;5062529;28;20389;-66
2023/07/23 01:28:25;;;;;;;63.75;27.95;;;;;;;;;;5072559;28;20066;-66
2023/07/23 01:30:54;;;;;;;58.75;27.13;;;;;;;;;;5072352;28;20021;-66
2023/07/23 01:33:20;;;;;;;59.70;27.63;;;;;;;;;;5070922;28;20052;-66
2023/07/23 01:35:45;;;;;;;62.65;26.88;;;;;;;;;;5061816;28;20473;-66
2023/07/23 01:38:11;;;;;;;61.28;26.63;;;;;;;;;;5074021;28;20056;-66
2023/07/23 01:40:36;;;;;;;55.78;25.73;;;;;;;;;;5074263;28;20020;-66
2023/07/23 01:43:01;;;;;;;60.33;27.08;;;;;;;;;;5072391;28;20075;-66
2023/07/23 01:45:27;;;;;;;60.03;27.10;;;;;;;;;;5068073;28;20465;-65
2023/07/23 01:47:53;;;;;;;54.72;26.63;;;;;;;;;;5067140;28;20085;-66
2023/07/23 01:50:18;;;;;;;58.60;26.73;;;;;;;;;;5061053;28;20036;-66
2023/07/23 01:52:43;;;;;;;51.22;26.08;;;;;;;;;;5067589;28;20029;-66
2023/07/23 01:55:08;;;;;;;55.42;25.65;;;;;;;;;;5059451;28;20078;-66
2023/07/23 01:57:34;;;;;;;52.88;25.85;;;;;;;;;;5065535;28;20029;-66
2023/07/23 01:59:59;;;;;;;53.08;24.77;;;;;;;;;;5072914;28;20035;-66
2023/07/23 02:02:24;;;;;;;54.90;25.30;;;;;;;;;;5059658;28;20052;-66
2023/07/23 02:04:49;;;;;;;52.00;24.02;;;;;;;;;;5038512;28;20078;-66
2023/07/23 02:07:14;;;;;;;50.53;24.20;;;;;;;;;;5046489;28;20040;-66
2023/07/23 02:09:40;;;;;;;51.92;25.48;;;;;;;;;;5052330;28;20032;-66
2023/07/23 02:12:05;;;;;;;49.50;23.58;;;;;;;;;;5048857;28;20035;-66
2023/07/23 02:14:30;;;;;;;43.22;22.38;;;;;;;;;;5051663;28;20037;-65
2023/07/23 02:16:56;;;;;;;45.58;22.25;;;;;;;;;;5045994;28;20086;-66
2023/07/23 02:19:22;;;;;;;45.40;23.45;;;;;;;;;;5051948;28;20029;-66
2023/07/23 02:21:47;;;;;;;45.72;22.33;;;;;;;;;;5048752;28;20029;-66
2023/07/23 02:24:12;;;;;;;45.53;22.67;;;;;;;;;;5048846;28;20047;-66
2023/07/23 02:26:37;;;;;;;45.60;22.15;;;;;;;;;;5041008;28;20492;-66
2023/07/23 02:29:03;;;;;;;51.45;22.73;;;;;;;;;;5047172;28;20488;-66
2023/07/23 02:31:28;;;;;;;42.13;20.63;;;;;;;;;;5031790;28;20030;-66
2023/07/23 02:33:53;;;;;;;41.53;21.33;;;;;;;;;;5043311;28;20033;-66
2023/07/23 02:36:18;;;;;;;43.35;21.25;;;;;;;;;;5040736;28;20053;-66
2023/07/23 02:38:43;;;;;;;39.58;19.15;;;;;;;;;;5038528;28;20025;-71
2023/07/23 02:41:09;;;;;;;39.30;19.98;;;;;;;;;;5041214;28;20021;-66
2023/07/23 02:43:34;;;;;;;38.53;20.35;;;;;;;;;;5040053;28;20025;-66
2023/07/23 02:45:59;;;;;;;43.92;19.02;;;;;;;;;;5053077;28;20024;-66
2023/07/23 02:48:24;;;;;;;42.92;19.58;;;;;;;;;;5046083;28;20465;-66
2023/07/23 02:50:52;;;;;;;36.00;19.83;;;;;;;;;;5051308;28;20056;-66
2023/07/23 02:53:18;;;;;;;44.88;20.50;;;;;;;;;;5049912;28;20044;-67
2023/07/23 02:55:44;;;;;;;38.25;19.73;;;;;;;;;;5045181;28;20022;-66
2023/07/23 02:58:09;;;;;;;41.88;20.13;;;;;;;;;;5041456;28;20377;-66
2023/07/23 03:00:34;;;;;;;38.30;19.48;;;;;;;;;;5052930;28;20096;-66
2023/07/23 03:02:59;;;;;;;39.15;19.92;;;;;;;;;;5046917;28;20520;-66
2023/07/23 03:05:25;;;;;;;37.22;19.63;;;;;;;;;;5052943;28;20017;-66
2023/07/23 03:07:54;;;;;;;37.85;19.85;;;;;;;;;;5052597;28;20021;-67
2023/07/23 03:10:19;;;;;;;42.63;20.05;;;;;;;;;;5069824;28;20480;-66
2023/07/23 03:12:45;;;;;;;40.92;20.27;;;;;;;;;;5072675;28;20032;-66
2023/07/23 03:15:10;;;;;;;41.80;21.70;;;;;;;;;;5060370;28;20112;-66
2023/07/23 03:17:35;;;;;;;39.67;20.02;;;;;;;;;;5052823;28;20032;-67
2023/07/23 03:20:01;;;;;;;36.45;19.45;;;;;;;;;;5056591;28;20069;-66
2023/07/23 03:22:26;;;;;;;40.53;19.33;;;;;;;;;;5056714;28;20469;-66
2023/07/23 03:24:51;;;;;;;41.42;19.92;;;;;;;;;;5069042;28;20025;-66
2023/07/23 03:27:16;;;;;;;38.67;19.17;;;;;;;;;;5065494;28;20024;-66
2023/07/23 03:29:41;;;;;;;42.28;19.63;;;;;;;;;;5064042;28;20500;-67
2023/07/23 03:32:07;;;;;;;37.30;18.35;;;;;;;;;;5059611;28;20027;-65
2023/07/23 03:34:32;;;;;;;37.78;18.80;;;;;;;;;;5049610;28;20056;-66
2023/07/23 03:36:57;;;;;;;37.30;17.92;;;;;;;;;;5052284;28;20083;-66
2023/07/23 03:39:23;;;;;;;35.17;18.45;;;;;;;;;;5055596;28;20029;-66
2023/07/23 03:41:48;;;;;;;38.22;16.83;;;;;;;;;;5052675;28;20017;-67
2023/07/23 03:44:13;;;;;;;35.08;16.05;;;;;;;;;;5062360;28;20020;-66
2023/07/23 03:46:42;;;;;;;31.27;16.65;;;;;;;;;;5061625;28;20029;-66
2023/07/23 03:49:08;;;;;;;30.67;16.33;;;;;;;;;;5052040;28;20036;-66
2023/07/23 03:51:33;;;;;;;33.25;16.40;;;;;;;;;;5054190;28;20029;-66
2023/07/23 03:53:58;;;;;;;27.50;13.75;;;;;;;;;;5053920;28;20025;-66
2023/07/23 03:56:23;;;;;;;28.08;14.55;;;;;;;;;;5058422;28;20025;-66
2023/07/23 03:58:48;;;;;;;29.63;14.52;;;;;;;;;;5048274;28;20059;-66
2023/07/23 04:01:14;;;;;;;23.80;14.57;;;;;;;;;;5038447;28;20098;-66
2023/07/23 04:03:39;;;;;;;31.50;14.65;;;;;;;;;;5054617;28;20057;-66
2023/07/23 04:06:04;;;;;;;28.13;14.70;;;;;;;;;;5070049;28;20024;-66
2023/07/23 04:08:29;;;;;;;27.90;15.15;;;;;;;;;;5054758;28;20037;-66
2023/07/23 04:10:55;;;;;;;28.90;15.05;;;;;;;;;;5053701;28;20036;-66
2023/07/23 04:13:21;;;;;;;32.28;15.02;;;;;;;;;;5059820;28;20025;-66
2023/07/23 04:15:46;;;;;;;26.13;12.80;;;;;;;;;;5053462;28;20025;-67
2023/07/23 04:18:13;;;;;;;23.73;11.95;;;;;;;;;;5054675;28;20021;-66
2023/07/23 04:20:38;;;;;;;24.75;12.63;;;;;;;;;;5058557;28;20115;-67
2023/07/23 04:23:04;;;;;;;28.02;13.07;;;;;;;;;;5062049;28;20485;-66
2023/07/23 04:25:29;;;;;;;25.15;13.18;;;;;;;;;;5065269;28;20751;-66
2023/07/23 04:27:54;;;;;;;21.45;11.88;;;;;;;;;;5054692;28;20024;-66
2023/07/23 04:30:19;;;;;;;24.42;12.55;;;;;;;;;;5053170;28;20052;-66
2023/07/23 04:32:45;;;;;;;24.02;12.60;;;;;;;;;;5060264;28;20025;-66
2023/07/23 04:35:10;;;;;;;26.23;12.13;;;;;;;;;;5057670;28;20025;-66
2023/07/23 04:37:35;;;;;;;20.70;11.70;;;;;;;;;;5055067;28;20389;-66
2023/07/23 04:40:00;;;;;;;19.48;11.27;;;;;;;;;;5064981;28;20078;-66
2023/07/23 04:42:26;;;;;;;25.67;12.23;;;;;;;;;;5053719;28;20028;-67
2023/07/23 04:44:51;;;;;;;21.58;11.70;;;;;;;;;;5061820;28;20020;-67
2023/07/23 04:47:16;;;;;;;23.00;10.43;;;;;;;;;;5065458;28;20025;-66
2023/07/23 04:49:41;;;;;;;20.38;10.93;;;;;;;;;;5053148;28;20032;-66
2023/07/23 04:52:07;;;;;;;24.83;11.30;;;;;;;;;;5052322;28;20115;-66
2023/07/23 04:54:32;;;;;;;26.15;11.13;;;;;;;;;;5068075;28;20047;-67
2023/07/23 04:56:57;;;;;;;22.17;10.57;;;;;;;;;;5058028;28;20039;-66
2023/07/23 04:59:23;;;;;;;16.77;9.57;;;;;;;;;;5053273;28;20380;-67
2023/07/23 05:01:48;;;;;;;18.48;10.38;;;;;;;;;;5044737;28;20095;-66
2023/07/23 05:04:13;;;;;;;19.88;10.73;;;;;;;;;;5051988;28;20053;-67
2023/07/23 05:06:38;;;;;;;23.95;10.95;;;;;;;;;;5055121;28;20029;-66
2023/07/23 05:09:03;;;;;;;19.33;10.27;;;;;;;;;;5050272;28;20032;-66
2023/07/23 05:11:29;;;;;;;19.00;10.00;;;;;;;;;;5054762;28;20036;-66
2023/07/23 05:13:54;;;;;;;20.05;9.35;;;;;;;;;;5053825;28;20025;-66
2023/07/23 05:16:19;;;;;;;19.40;10.25;;;;;;;;;;5054689;28;20056;-66
2023/07/23 05:18:44;;;;;;;19.92;9.65;;;;;;;;;;5054525;28;20032;-66
2023/07/23 05:21:10;;;;;;;17.45;10.07;;;;;;;;;;5048844;28;20036;-66
2023/07/23 05:23:35;;;;;;;19.95;10.15;;;;;;;;;;5049984;28;20029;-66
2023/07/23 05:26:00;;;;;;;18.60;9.60;;;;;;;;;;5051034;28;20024;-66
2023/07/23 05:28:25;;;;;;;20.65;10.80;;;;;;;;;;5060026;28;20016;-66
2023/07/23 05:30:56;;;;;;;16.20;8.77;;;;;;;;;;5062765;28;20040;-66
2023/07/23 05:33:21;;;;;;;21.55;10.10;;;;;;;;;;5065138;28;20087;-66
2023/07/23 05:35:46;;;;;;;20.52;10.55;;;;;;;;;;5055378;28;20435;-66
2023/07/23 05:38:11;;;;;;;16.95;8.60;;;;;;;;;;5053638;28;20558;-66
2023/07/23 05:40:37;;;;;;;16.77;9.60;;;;;;;;;;5057392;28;20030;-66
2023/07/23 05:43:07;;;;;;;15.35;8.40;;;;;;;;;;5064995;28;20028;-66
2023/07/23 05:45:32;;;;;;;16.00;8.48;;;;;;;;;;5040620;28;20533;-66
2023/07/23 05:47:58;;;;;;;16.52;9.75;;;;;;;;;;5052339;28;20112;-66
2023/07/23 05:50:23;;;;;;;16.75;8.68;;;;;;;;;;5053656;28;20065;-71
2023/07/23 05:52:48;;;;;;;17.15;9.13;;;;;;;;;;5052329;28;20090;-70
2023/07/23 05:55:13;;;;;;;17.48;8.40;;;;;;;;;;5070252;28;20031;-71
2023/07/23 05:57:39;;;;;;;15.55;7.63;;;;;;;;;;5048695;28;20071;-70
2023/07/23 06:00:04;;;;;;;17.00;8.07;;;;;;;;;;5052876;28;20013;-70
2023/07/23 06:02:30;;;;;;;19.25;8.73;;;;;;;;;;5070057;28;20044;-71
2023/07/23 06:04:55;;;;;;;16.83;8.18;;;;;;;;;;5054262;28;20028;-70
2023/07/23 06:07:20;;;;;;;17.45;8.07;;;;;;;;;;5062994;28;20037;-70
2023/07/23 06:09:45;;;;;;;16.65;8.27;;;;;;;;;;5052867;28;20465;-71
2023/07/23 06:12:10;;;;;;;17.02;8.55;;;;;;;;;;5059098;28;20021;-70
2023/07/23 06:14:36;;;;;;;13.50;7.40;;;;;;;;;;5063298;28;20032;-70
2023/07/23 06:17:01;;;;;;;14.82;7.40;;;;;;;;;;5064349;28;20032;-70
2023/07/23 06:19:26;;;;;;;13.68;7.82;;;;;;;;;;5072194;28;20441;-71
2023/07/23 06:21:51;;;;;;;15.05;7.78;;;;;;;;;;5063361;28;20416;-71
2023/07/23 06:24:17;;;;;;;15.70;7.40;;;;;;;;;;5054677;28;20047;-71
2023/07/23 06:26:42;;;;;;;16.45;7.30;;;;;;;;;;5059295;28;20053;-71
2023/07/23 06:29:08;;;;;;;14.57;7.55;;;;;;;;;;5053570;28;20025;-71
2023/07/23 06:31:33;;;;;;;16.25;7.07;;;;;;;;;;5061279;28;20507;-71
2023/07/23 06:33:59;;;;;;;13.48;7.43;;;;;;;;;;5068916;28;20028;-71
2023/07/23 06:36:24;;;;;;;16.42;7.13;;;;;;;;;;5068308;28;20024;-71
2023/07/23 06:38:49;;;;;;;14.20;6.90;;;;;;;;;;5059658;28;20040;-71
2023/07/23 06:41:14;;;;;;;12.73;6.80;;;;;;;;;;5059543;28;20020;-71
2023/07/23 06:43:39;;;;;;;14.95;7.18;;;;;;;;;;5073139;28;20032;-71
2023/07/23 06:46:05;;;;;;;13.20;6.55;;;;;;;;;;5070733;28;20016;-71
2023/07/23 06:48:30;;;;;;;13.73;7.28;;;;;;;;;;5073398;28;20031;-71
2023/07/23 06:50:56;;;;;;;15.95;6.88;;;;;;;;;;5064842;28;20029;-71
2023/07/23 06:53:21;;;;;;;11.77;6.85;;;;;;;;;;5068449;28;20027;-71
2023/07/23 06:56:00;;;;;;;13.73;6.70;;;;;;;;;;5056567;28;20032;-71
2023/07/23 06:58:26;;;;;;;11.57;6.70;;;;;;;;;;5055406;28;20480;-71
2023/07/23 07:00:51;;;;;;;12.68;6.55;;;;;;;;;;5052321;28;20028;-71
2023/07/23 07:03:17;;;;;;;13.48;6.07;;;;;;;;;;5064689;28;20049;-71
2023/07/23 07:05:42;;;;;;;12.55;6.70;;;;;;;;;;5057180;28;20031;-71
2023/07/23 07:08:07;;;;;;;14.38;6.80;;;;;;;;;;5051961;28;20029;-71
2023/07/23 07:10:32;;;;;;;10.38;5.85;;;;;;;;;;5052921;28;20025;-71
2023/07/23 07:12:57;;;;;;;10.10;5.57;;;;;;;;;;5052794;28;20029;-71
2023/07/23 07:15:23;;;;;;;13.55;5.95;;;;;;;;;;5057667;28;20028;-71
2023/07/23 07:17:48;;;;;;;12.85;5.53;;;;;;;;;;5061629;28;20029;-71
2023/07/23 07:20:13;;;;;;;11.73;5.00;;;;;;;;;;5057164;28;20032;-71
2023/07/23 07:22:38;;;;;;;14.40;5.15;;;;;;;;;;5060080;28;20024;-71
2023/07/23 07:25:04;;;;;;;9.38;4.95;;;;;;;;;;5067526;28;20029;-71
2023/07/23 07:27:29;;;;;;;10.98;4.82;;;;;;;;;;5066959;28;20419;-71
2023/07/23 07:29:54;;;;;;;9.10;4.63;;;;;;;;;;5053069;28;20064;-71
2023/07/23 07:32:20;;;;;;;9.75;4.65;;;;;;;;;;5051974;28;20090;-71
2023/07/23 07:34:45;;;;;;;11.00;5.13;;;;;;;;;;5071034;28;20480;-71
2023/07/23 07:37:10;;;;;;;9.40;4.90;;;;;;;;;;5067861;28;20539;-72
2023/07/23 07:39:35;;;;;;;9.45;5.10;;;;;;;;;;5057828;28;20481;-71
2023/07/23 07:42:01;;;;;;;11.18;5.22;;;;;;;;;;5060670;28;20024;-71
2023/07/23 07:44:28;;;;;;;10.63;4.85;;;;;;;;;;5058434;28;20119;-71
2023/07/23 07:46:53;;;;;;;8.98;4.82;;;;;;;;;;5074807;28;20115;-71
2023/07/23 07:49:18;;;;;;;8.68;4.82;;;;;;;;;;5068553;28;20100;-71
2023/07/23 07:51:47;;;;;;;10.55;4.43;;;;;;;;;;5062148;28;20044;-72
2023/07/23 07:54:12;;;;;;;9.30;4.43;;;;;;;;;;5057146;28;20020;-71
2023/07/23 07:56:37;;;;;;;7.57;4.53;;;;;;;;;;5051191;28;20386;-71
2023/07/23 07:59:04;;;;;;;10.65;4.80;;;;;;;;;;5068570;28;20025;-71
2023/07/23 08:01:29;;;;;;;9.77;4.70;;;;;;;;;;5074338;28;20077;-71
2023/07/23 08:03:54;;;;;;;9.25;4.60;;;;;;;;;;5064284;28;20123;-71
2023/07/23 08:06:21;;;;;;;8.10;4.20;;;;;;;;;;5071673;28;20020;-71
2023/07/23 08:08:48;;;;;;;7.43;4.38;;;;;;;;;;5069355;28;20446;-71
2023/07/23 08:11:14;;;;;;;9.13;4.68;;;;;;;;;;5061005;28;20024;-71
2023/07/23 08:13:39;;;;;;;8.23;4.60;;;;;;;;;;5066788;28;20032;-71
2023/07/23 08:16:05;;;;;;;11.00;5.05;;;;;;;;;;5076062;28;20381;-72
2023/07/23 08:18:30;;;;;;;10.43;4.53;;;;;;;;;;5069362;28;20043;-71
2023/07/23 08:20:57;;;;;;;8.30;4.10;;;;;;;;;;5055299;28;20027;-71
2023/07/23 08:23:23;;;;;;;9.35;4.55;;;;;;;;;;5053830;28;20025;-71
2023/07/23 08:25:49;;;;;;;6.57;4.20;;;;;;;;;;5054827;28;20083;-71
2023/07/23 08:28:17;;;;;;;9.35;4.47;;;;;;;;;;5054131;28;20048;-71
2023/07/23 08:30:42;;;;;;;8.90;4.68;;;;;;;;;;5056299;28;20028;-71
2023/07/23 08:33:09;;;;;;;7.25;4.03;;;;;;;;;;5047671;28;20538;-71
2023/07/23 08:35:34;;;;;;;8.50;5.15;;;;;;;;;;5053354;28;20469;-71
2023/07/23 08:37:59;;;;;;;7.13;4.40;;;;;;;;;;5048785;28;20033;-71
2023/07/23 08:40:25;;;;;;;10.23;4.50;;;;;;;;;;5053187;28;20045;-71
2023/07/23 08:42:53;;;;;;;10.15;4.32;;;;;;;;;;5053031;28;20017;-71
2023/07/23 08:45:25;;;;;;;9.02;4.10;;;;;;;;;;5072697;28;20017;-71
2023/07/23 08:47:54;;;;;;;6.25;3.50;;;;;;;;;;5073561;28;20028;-71
2023/07/23 08:50:19;;;;;;;8.75;4.35;;;;;;;;;;5061128;28;20028;-71
2023/07/23 08:52:45;;;;;;;8.15;3.92;;;;;;;;;;5058729;28;20028;-71
2023/07/23 08:55:11;;;;;;;7.55;3.58;;;;;;;;;;5055342;28;20028;-71
2023/07/23 08:57:37;;;;;;;8.80;4.78;;;;;;;;;;5052226;28;20444;-71
2023/07/23 09:00:02;;;;;;;9.35;4.57;;;;;;;;;;5060487;28;20013;-71
2023/07/23 09:02:28;;;;;;;8.98;3.92;;;;;;;;;;5054112;28;20408;-71
2023/07/23 09:04:54;;;;;;;7.15;4.22;;;;;;;;;;5054450;28;20400;-71
2023/07/23 09:07:19;;;;;;;10.60;4.60;;;;;;;;;;5054593;28;20104;-71
2023/07/23 09:09:47;;;;;;;7.40;3.97;;;;;;;;;;5054981;28;20469;-71
2023/07/23 09:12:12;;;;;;;8.68;4.70;;;;;;;;;;5055039;28;20020;-71
2023/07/23 09:14:44;;;;;;;9.07;4.43;;;;;;;;;;5056894;28;20420;-71
2023/07/23 09:17:16;;;;;;;7.85;3.90;;;;;;;;;;5074650;28;20062;-71
2023/07/23 09:19:42;;;;;;;10.48;4.18;;;;;;;;;;5074807;28;20070;-71
2023/07/23 09:22:07;;;;;;;10.20;4.30;;;;;;;;;;5073354;28;20016;-71
2023/07/23 09:24:33;;;;;;;10.25;4.20;;;;;;;;;;5066636;28;20050;-71
2023/07/23 09:26:59;;;;;;;8.57;4.07;;;;;;;;;;5073136;28;20059;-71
2023/07/23 09:29:33;;;;;;;6.65;3.53;;;;;;;;;;5060212;28;20021;-71
2023/07/23 09:31:58;;;;;;;9.35;4.38;;;;;;;;;;5044940;28;20053;-70
2023/07/23 09:34:24;;;;;;;7.55;3.53;;;;;;;;;;5034663;28;20508;-70
2023/07/23 09:36:51;;;;;;;8.65;4.30;;;;;;;;;;5062932;28;20024;-70
2023/07/23 09:39:17;;;;;;;9.88;4.63;;;;;;;;;;5054783;28;20021;-70
2023/07/23 09:41:42;;;;;;;9.40;4.85;;;;;;;;;;5070075;28;20373;-69
2023/07/23 09:44:09;;;;;;;9.80;5.22;;;;;;;;;;5072828;28;20484;-70
2023/07/23 09:46:53;;;;;;;9.95;4.80;;;;;;;;;;5067907;28;20065;-70
2023/07/23 09:49:22;;;;;;;11.25;5.40;;;;;;;;;;5066548;28;20100;-70
2023/07/23 09:51:51;;;;;;;11.23;5.55;;;;;;;;;;5069466;28;20415;-70
2023/07/23 09:54:16;;;;;;;13.05;5.30;;;;;;;;;;5069333;28;20028;-70
2023/07/23 09:56:42;;;;;;;12.00;5.80;;;;;;;;;;5065689;28;20135;-70
2023/07/23 09:59:08;;;;;;;9.57;4.90;;;;;;;;;;5053910;28;20053;-70
2023/07/23 10:01:34;;;;;;;12.88;5.55;;;;;;;;;;5066403;28;20029;-70
2023/07/23 10:03:59;;;;;;;11.30;5.50;;;;;;;;;;5062576;28;20583;-70
2023/07/23 10:06:24;;;;;;;8.70;5.35;;;;;;;;;;5071787;28;20480;-70
2023/07/23 10:08:50;;;;;;;10.07;5.40;;;;;;;;;;5071152;28;20031;-70
2023/07/23 10:11:16;;;;;;;12.25;4.97;;;;;;;;;;5069699;28;20028;-71
2023/07/23 10:13:42;;;;;;;8.73;4.85;;;;;;;;;;5054681;28;20469;-71
2023/07/23 10:16:20;;;;;;;9.73;4.90;;;;;;;;;;5064664;28;20029;-71
2023/07/23 10:18:46;;;;;;;8.43;5.00;;;;;;;;;;5045451;28;20024;-71
2023/07/23 10:21:11;;;;;;;10.63;5.03;;;;;;;;;;5064461;28;20017;-71
2023/07/23 10:23:37;;;;;;;8.75;4.60;;;;;;;;;;5061722;28;20028;-71
2023/07/23 10:26:21;;;;;;;9.07;5.28;;;;;;;;;;5071376;28;20024;-71
2023/07/23 10:28:48;;;;;;;11.35;4.80;;;;;;;;;;5070472;28;20024;-71
2023/07/23 10:31:19;;;;;;;10.27;4.07;;;;;;;;;;5050353;28;20083;-71
2023/07/23 10:33:45;;;;;;;7.22;4.18;;;;;;;;;;5044797;28;20059;-71
2023/07/23 10:36:11;;;;;;;5.93;3.72;;;;;;;;;;5055168;28;20024;-71
2023/07/23 10:38:38;;;;;;;9.13;3.58;;;;;;;;;;5063032;28;20388;-71
2023/07/23 10:41:03;;;;;;;9.05;4.75;;;;;;;;;;5055756;28;20358;-71
2023/07/23 10:43:39;;;;;;;6.88;3.83;;;;;;;;;;5057268;28;20031;-71
2023/07/23 10:46:06;;;;;;;5.78;3.67;;;;;;;;;;5037381;28;20035;-70
2023/07/23 10:48:40;;;;;;;8.68;4.32;;;;;;;;;;5054168;28;20029;-71
2023/07/23 10:51:06;;;;;;;11.77;4.60;;;;;;;;;;5056791;28;20066;-70
2023/07/23 10:53:32;;;;;;;8.20;3.75;;;;;;;;;;5057449;28;20020;-71
2023/07/23 10:55:59;;;;;;;9.52;4.32;;;;;;;;;;5061893;28;20033;-71
2023/07/23 10:58:25;;;;;;;8.05;4.10;;;;;;;;;;5052109;28;20499;-71
2023/07/23 11:00:55;;;;;;;6.97;3.67;;;;;;;;;;5053226;28;20420;-71
2023/07/23 11:03:21;;;;;;;10.60;5.32;;;;;;;;;;5067011;28;20131;-72
2023/07/23 11:05:46;;;;;;;8.20;4.72;;;;;;;;;;5040048;28;20525;-71
2023/07/23 11:08:26;;;;;;;9.80;4.47;;;;;;;;;;5042103;28;20055;-71
2023/07/23 11:10:57;;;;;;;8.52;5.00;;;;;;;;;;5052841;28;20049;-71
2023/07/23 11:13:23;;;;;;;7.03;4.47;;;;;;;;;;5058815;28;20035;-71
2023/07/23 11:15:49;;;;;;;9.10;4.43;;;;;;;;;;5055694;28;20432;-71
2023/07/23 11:18:14;;;;;;;13.52;4.63;;;;;;;;;;5053677;28;20025;-71
2023/07/23 11:20:46;;;;;;;8.70;4.97;;;;;;;;;;5056398;28;20116;-71
2023/07/23 11:23:11;;;;;;;8.45;5.05;;;;;;;;;;5056492;28;20112;-72
2023/07/23 11:25:37;;;;;;;9.93;5.25;;;;;;;;;;5047666;28;20103;-71
2023/07/23 11:28:02;;;;;;;10.30;5.90;;;;;;;;;;5060758;28;20028;-71
2023/07/23 11:30:30;;;;;;;8.05;5.10;;;;;;;;;;5065353;28;20025;-71
2023/07/23 11:32:55;;;;;;;7.70;5.05;;;;;;;;;;5056684;28;20037;-71
2023/07/23 11:35:21;;;;;;;8.43;5.10;;;;;;;;;;5056115;28;20392;-71
2023/07/23 11:37:48;;;;;;;9.20;4.68;;;;;;;;;;5051480;28;20043;-71
2023/07/23 11:40:20;;;;;;;9.90;5.20;;;;;;;;;;5053821;28;20388;-71
2023/07/23 11:42:45;;;;;;;8.40;4.90;;;;;;;;;;5064442;28;20021;-71
2023/07/23 11:45:11;;;;;;;8.18;5.03;;;;;;;;;;5066161;28;20023;-71
2023/07/23 11:47:49;;;;;;;8.88;5.32;;;;;;;;;;5071977;28;20051;-71
2023/07/23 11:50:17;;;;;;;8.38;5.55;;;;;;;;;;5052580;28;20362;-71
2023/07/23 11:52:43;;;;;;;6.93;4.22;;;;;;;;;;5052438;28;20129;-71
2023/07/23 11:55:28;;;;;;;7.43;3.80;;;;;;;;;;5058296;28;20115;-71
2023/07/23 11:57:54;;;;;;;4.00;2.53;;;;;;;;;;5062428;28;20527;-71
2023/07/23 12:00:24;;;;;;;5.22;2.78;;;;;;;;;;5061535;28;20055;-71
2023/07/23 12:02:50;;;;;;;5.35;2.55;;;;;;;;;;5057343;28;20072;-72
2023/07/23 12:05:15;;;;;;;6.07;3.22;;;;;;;;;;5061457;28;20041;-72
2023/07/23 12:07:40;;;;;;;4.53;2.85;;;;;;;;;;5058586;28;20016;-71
2023/07/23 12:10:06;;;;;;;5.55;2.80;;;;;;;;;;5053871;28;20095;-71
2023/07/23 12:12:32;;;;;;;5.93;3.05;;;;;;;;;;5073301;28;20051;-72
2023/07/23 12:15:04;;;;;;;6.00;3.10;;;;;;;;;;5073786;28;20032;-71
2023/07/23 12:17:29;;;;;;;;;;;;;;;;;;5076357;28;20044;-72
2023/07/23 12:19:54;;;;;;;7.00;3.08;;;;;;;;;;5062018;28;20014;-71
2023/07/23 12:22:19;;;;;;;5.30;3.50;;;;;;;;;;5054657;28;20321;-71
2023/07/23 12:24:44;;;;;;;4.78;2.85;;;;;;;;;;5059400;28;20025;-71
2023/07/23 12:27:10;;;;;;;7.35;3.58;;;;;;;;;;5062362;28;20029;-72
2023/07/23 12:29:39;;;;;;;5.65;3.20;;;;;;;;;;5061801;28;20028;-72
2023/07/23 12:32:12;;;;;;;6.47;3.30;;;;;;;;;;5071163;28;20024;-72
2023/07/23 12:34:38;;;;;;;6.82;3.35;;;;;;;;;;5052459;28;20033;-71
2023/07/23 12:37:03;;;;;;;6.38;3.05;;;;;;;;;;5050259;28;20530;-71
2023/07/23 12:39:28;;;;;;;5.50;3.17;;;;;;;;;;5050932;28;20021;-71
2023/07/23 12:41:54;;;;;;;4.13;2.72;;;;;;;;;;5058274;28;20021;-72
2023/07/23 12:44:19;;;;;;;4.30;2.85;;;;;;;;;;5054127;28;20021;-72
2023/07/23 12:46:44;;;;;;;4.60;2.97;;;;;;;;;;5064160;28;20024;-72
2023/07/23 12:49:09;;;;;;;4.43;3.20;;;;;;;;;;5065044;28;20036;-72
2023/07/23 12:51:34;;;;;;;4.32;2.72;;;;;;;;;;5061284;28;20531;-71
2023/07/23 12:54:00;;;;;;;4.60;2.80;;;;;;;;;;5065215;28;20674;-72
2023/07/23 12:56:25;;;;;;;4.03;2.60;;;;;;;;;;5062496;28;20374;-71
2023/07/23 12:58:50;;;;;;;6.57;3.17;;;;;;;;;;5063834;28;20073;-71
2023/07/23 13:01:15;;;;;;;4.80;3.10;;;;;;;;;;5059947;28;20477;-71
2023/07/23 13:03:42;;;;;;;5.90;3.42;;;;;;;;;;5045458;28;20138;-71
2023/07/23 13:06:07;;;;;;;5.13;2.63;;;;;;;;;;5064095;28;20023;-71
2023/07/23 13:08:32;;;;;;;4.93;2.60;;;;;;;;;;5062200;28;20032;-72
2023/07/23 13:10:58;;;;;;;5.47;2.53;;;;;;;;;;5062956;28;20111;-72
2023/07/23 13:13:23;;;;;;;4.65;2.65;;;;;;;;;;5064552;28;20016;-72
2023/07/23 13:15:48;;;;;;;6.43;3.20;;;;;;;;;;5060586;28;20116;-71
2023/07/23 13:18:13;;;;;;;5.60;2.97;;;;;;;;;;5059553;28;20021;-70
2023/07/23 13:20:39;;;;;;;5.07;3.20;;;;;;;;;;5069684;28;20029;-70
2023/07/23 13:23:05;;;;;;;3.50;2.50;;;;;;;;;;5068264;28;20468;-70
2023/07/23 13:25:30;;;;;;;5.22;3.28;;;;;;;;;;5061165;28;20033;-70
2023/07/23 13:27:56;;;;;;;4.82;3.45;;;;;;;;;;5063795;28;20028;-71
2023/07/23 13:30:21;;;;;;;5.00;3.38;;;;;;;;;;5063168;28;20105;-71
2023/07/23 13:32:46;;;;;;;4.03;2.90;;;;;;;;;;5065226;28;20036;-71
2023/07/23 13:35:11;;;;;;;4.57;3.10;;;;;;;;;;5065153;28;20745;-70
2023/07/23 13:37:37;;;;;;;6.22;3.90;;;;;;;;;;5067518;28;20071;-71
2023/07/23 13:40:02;;;;;;;5.05;3.72;;;;;;;;;;5073325;28;20020;-71
2023/07/23 13:42:28;;;;;;;4.32;2.90;;;;;;;;;;5073788;28;20021;-71
2023/07/23 13:44:53;;;;;;;4.30;2.33;;;;;;;;;;5062151;28;20028;-71
2023/07/23 13:47:18;;;;;;;3.47;2.15;;;;;;;;;;5068262;28;20095;-71
2023/07/23 13:49:43;;;;;;;3.05;1.80;;;;;;;;;;5064657;28;20067;-70
2023/07/23 13:52:09;;;;;;;3.40;2.20;;;;;;;;;;5057493;28;20476;-70
2023/07/23 13:54:34;;;;;;;2.65;1.77;;;;;;;;;;5069377;28;20031;-70
2023/07/23 13:56:59;;;;;;;3.40;1.90;;;;;;;;;;5063138;28;20542;-71
2023/07/23 13:59:25;;;;;;;3.20;2.03;;;;;;;;;;5054898;28;20025;-71
2023/07/23 14:01:50;;;;;;;3.95;2.40;;;;;;;;;;5052683;28;20055;-70
2023/07/23 14:04:15;;;;;;;4.97;2.60;;;;;;;;;;5032752;28;20064;-71
2023/07/23 14:06:41;;;;;;;4.32;2.42;;;;;;;;;;5052988;28;20461;-71
2023/07/23 14:09:06;;;;;;;3.00;1.73;;;;;;;;;;5054712;28;20100;-71
2023/07/23 14:11:31;;;;;;;3.88;2.13;;;;;;;;;;5055404;28;20484;-71
2023/07/23 14:13:56;;;;;;;3.10;2.10;;;;;;;;;;5053538;28;20358;-71
2023/07/23 14:16:21;;;;;;;5.43;2.28;;;;;;;;;;5060185;28;20052;-71
2023/07/23 14:18:47;;;;;;;3.78;1.98;;;;;;;;;;5060346;28;20043;-70
2023/07/23 14:21:14;;;;;;;2.58;1.67;;;;;;;;;;5068047;28;20032;-70
2023/07/23 14:23:39;;;;;;;2.80;1.80;;;;;;;;;;5050231;28;20030;-70
2023/07/23 14:26:04;;;;;;;2.85;1.88;;;;;;;;;;5050535;28;20021;-71